Time;durP1;ratioP1;P1;durP2;ratioP2;P2;SDS_P1;SDS_P2;PMS_P1;PMS_P2;Temp;Humidity;BMP_temperature;BMP_pressure;BME280_temperature;BME280_humidity;BME280_pressure;Samples;Min_cycle;Max_cycle;Signal;HPM_P1;HPM_P2
2022/07/21 02:51:14;;;;;;;5.70;2.40;;;14.20;99.90;;;;;;5150596;27;20539;-64
2022/07/21 02:53:41;;;;;;;6.30;2.30;;;14.80;99.90;;;;;;5146919;27;20640;-65
2022/07/21 02:56:08;;;;;;;7.07;2.70;;;14.90;99.90;;;;;;5132543;27;20203;-65
2022/07/21 02:58:35;;;;;;;5.93;2.73;;;14.90;99.90;;;;;;5129914;28;20234;-65
2022/07/21 03:01:04;;;;;;;3.53;2.30;;;14.90;99.90;;;;;;5129876;28;20294;-66
2022/07/21 03:03:33;;;;;;;5.97;2.80;;;15.00;99.90;;;;;;5130275;27;20299;-65
2022/07/21 03:06:01;;;;;;;4.17;2.50;;;15.00;99.90;;;;;;5150504;27;20226;-65
2022/07/21 03:08:30;;;;;;;4.10;2.90;;;15.00;99.90;;;;;;5150622;27;20292;-66
2022/07/21 03:10:57;;;;;;;4.63;2.60;;;15.10;99.90;;;;;;5130848;27;20688;-64
2022/07/21 03:13:24;;;;;;;4.20;2.50;;;15.10;99.90;;;;;;5129727;28;20573;-65
2022/07/21 03:15:51;;;;;;;4.73;2.53;;;15.10;99.90;;;;;;5129108;28;20290;-65
2022/07/21 03:18:18;;;;;;;5.90;2.50;;;15.20;99.90;;;;;;5129178;28;20206;-66
2022/07/21 03:20:46;;;;;;;3.90;2.20;;;15.20;99.90;;;;;;5144092;27;20309;-65
2022/07/21 03:23:13;;;;;;;4.80;2.33;;;15.20;99.90;;;;;;5150266;27;20598;-66
2022/07/21 03:25:42;;;;;;;6.57;2.67;;;15.20;99.90;;;;;;5149887;27;20202;-65
2022/07/21 03:28:09;;;;;;;3.20;2.50;;;15.30;99.90;;;;;;5150563;27;20207;-67
2022/07/21 03:30:37;;;;;;;5.40;3.10;;;15.30;99.90;;;;;;5148269;27;20199;-65
2022/07/21 03:33:04;;;;;;;8.07;3.17;;;15.30;99.90;;;;;;5148994;27;20653;-66
2022/07/21 03:35:31;;;;;;;3.13;2.40;;;15.30;99.90;;;;;;5150064;27;20201;-67
2022/07/21 03:38:00;;;;;;;3.70;2.40;;;15.40;99.90;;;;;;5149856;27;20208;-65
2022/07/21 03:40:30;;;;;;;4.70;2.40;;;15.40;99.90;;;;;;5147654;27;20751;-64
2022/07/21 03:43:01;;;;;;;4.07;2.40;;;15.40;99.90;;;;;;5149864;27;20213;-65
2022/07/21 03:45:30;;;;;;;6.70;2.30;;;15.50;99.90;;;;;;5149812;27;20551;-66
2022/07/21 03:47:57;;;;;;;5.60;2.30;;;15.50;99.90;;;;;;5149784;27;20205;-64
2022/07/21 03:50:24;;;;;;;5.23;2.30;;;15.60;99.90;;;;;;5144130;27;20284;-66
2022/07/21 03:52:51;;;;;;;3.10;2.50;;;15.60;99.90;;;;;;5135788;27;20293;-65
2022/07/21 03:55:18;;;;;;;6.17;2.93;;;15.60;99.90;;;;;;5135921;27;20628;-65
2022/07/21 03:57:47;;;;;;;6.07;2.00;;;15.60;99.90;;;;;;5135522;27;20746;-65
2022/07/21 04:00:17;;;;;;;4.40;2.60;;;15.70;99.90;;;;;;5123713;27;20307;-65
2022/07/21 04:02:45;;;;;;;5.73;2.33;;;15.70;99.90;;;;;;5129777;27;20272;-66
2022/07/21 04:05:13;;;;;;;4.33;2.40;;;15.80;99.90;;;;;;5135293;27;20238;-64
2022/07/21 04:07:41;;;;;;;4.47;2.23;;;15.80;99.90;;;;;;5134958;27;20218;-65
2022/07/21 04:10:09;;;;;;;3.80;1.90;;;15.80;99.90;;;;;;5133628;27;20207;-65
2022/07/21 04:12:37;;;;;;;7.13;2.27;;;15.90;99.90;;;;;;5134854;27;20279;-65
2022/07/21 04:15:05;;;;;;;6.13;2.10;;;16.00;99.90;;;;;;5135470;27;20304;-65
2022/07/21 04:17:33;;;;;;;2.53;2.03;;;16.10;99.90;;;;;;5135055;27;20204;-66
2022/07/21 04:20:00;;;;;;;2.83;2.17;;;16.10;99.90;;;;;;5133807;27;20307;-66
2022/07/21 04:22:27;;;;;;;5.20;2.10;;;16.00;99.90;;;;;;5132851;27;20634;-65
2022/07/21 04:24:54;;;;;;;4.20;2.10;;;16.00;99.90;;;;;;5135145;27;20290;-65
2022/07/21 04:27:21;;;;;;;3.70;2.33;;;16.10;99.90;;;;;;5126362;27;20295;-65
2022/07/21 04:29:48;;;;;;;3.33;2.30;;;16.20;99.90;;;;;;5114022;28;20204;-66
2022/07/21 04:32:15;;;;;;;2.97;2.00;;;16.20;99.90;;;;;;5114156;27;20300;-66
2022/07/21 04:34:43;;;;;;;3.17;2.20;;;16.30;99.90;;;;;;5114304;27;20306;-66
2022/07/21 04:37:10;;;;;;;4.07;2.30;;;16.40;99.90;;;;;;5128354;27;20692;-65
2022/07/21 04:39:37;;;;;;;5.03;2.20;;;16.40;99.90;;;;;;5132022;27;20232;-65
2022/07/21 04:42:04;;;;;;;4.37;2.13;;;16.50;99.90;;;;;;5134843;27;20202;-66
2022/07/21 04:44:31;;;;;;;6.20;2.27;;;16.60;99.90;;;;;;5134495;27;20208;-65
2022/07/21 04:46:58;;;;;;;8.47;2.40;;;16.70;99.90;;;;;;5134838;27;20216;-64
2022/07/21 04:49:25;;;;;;;5.10;2.30;;;16.70;99.90;;;;;;5121909;27;20278;-65
2022/07/21 04:51:53;;;;;;;5.63;3.33;;;16.80;99.90;;;;;;5124431;27;20280;-66
2022/07/21 04:54:20;;;;;;;5.63;2.30;;;16.90;99.90;;;;;;5122728;27;20225;-65
2022/07/21 04:56:47;;;;;;;4.00;2.13;;;17.00;99.90;;;;;;5122873;27;20198;-65
2022/07/21 04:59:14;;;;;;;2.63;1.70;;;17.10;99.90;;;;;;5123426;27;20214;-64
2022/07/21 05:01:41;;;;;;;8.63;2.73;;;17.10;99.90;;;;;;5122619;27;20204;-65
2022/07/21 05:04:09;;;;;;;2.43;1.93;;;17.20;99.90;;;;;;5122078;27;20201;-64
2022/07/21 05:06:36;;;;;;;3.27;2.00;;;17.20;99.90;;;;;;5128310;27;20205;-66
2022/07/21 05:09:04;;;;;;;3.33;2.00;;;17.30;99.90;;;;;;5119617;27;20649;-66
2022/07/21 05:11:31;;;;;;;4.07;2.27;;;17.40;99.90;;;;;;5121722;27;20204;-65
2022/07/21 05:13:58;;;;;;;4.80;2.50;;;17.50;99.90;;;;;;5122547;27;20292;-64
2022/07/21 05:16:25;;;;;;;4.47;2.90;;;17.60;99.90;;;;;;5124340;27;20308;-64
2022/07/21 05:18:52;;;;;;;4.87;1.90;;;17.70;99.90;;;;;;5120355;27;20244;-64
2022/07/21 05:21:19;;;;;;;4.10;2.00;;;17.80;99.90;;;;;;5119821;27;20293;-67
2022/07/21 05:23:46;;;;;;;4.77;2.37;;;17.70;99.90;;;;;;5122786;27;20206;-65
2022/07/21 05:26:15;;;;;;;3.20;2.30;;;17.80;99.90;;;;;;5121386;27;20202;-66
2022/07/21 05:28:42;;;;;;;10.97;2.20;;;17.80;99.90;;;;;;5121607;27;20373;-64
2022/07/21 05:31:09;;;;;;;9.27;2.43;;;17.90;99.90;;;;;;5122746;27;20279;-65
2022/07/21 05:33:36;;;;;;;2.23;1.80;;;18.00;99.90;;;;;;5117714;27;20458;-65
2022/07/21 05:36:04;;;;;;;4.93;1.80;;;18.00;99.90;;;;;;5113257;28;20203;-65
2022/07/21 05:38:31;;;;;;;5.43;1.90;;;18.10;99.90;;;;;;5119661;27;20608;-65
2022/07/21 05:40:59;;;;;;;6.43;1.80;;;18.20;99.90;;;;;;5122054;27;20308;-64
2022/07/21 05:43:28;;;;;;;5.30;2.03;;;18.30;99.90;;;;;;5121727;27;20294;-65
2022/07/21 05:45:55;;;;;;;5.20;2.00;;;18.30;99.90;;;;;;5121179;27;20207;-64
2022/07/21 05:48:22;;;;;;;4.33;1.80;;;18.30;99.90;;;;;;5123629;27;20203;-66
2022/07/21 05:50:49;;;;;;;2.63;2.10;;;18.40;99.90;;;;;;5121683;27;20635;-66
2022/07/21 05:53:15;;;;;;;5.73;1.60;;;18.50;99.90;;;;;;5121629;27;20198;-65
2022/07/21 05:55:42;;;;;;;4.60;1.80;;;18.60;99.90;;;;;;5123010;27;20207;-65
2022/07/21 05:58:09;;;;;;;5.37;1.70;;;18.70;99.90;;;;;;5125338;27;20482;-65
2022/07/21 06:00:38;;;;;;;3.60;1.70;;;18.80;99.90;;;;;;5112462;28;20680;-65
2022/07/21 06:03:04;;;;;;;2.27;1.50;;;18.90;99.90;;;;;;5112548;28;20211;-67
2022/07/21 06:05:31;;;;;;;2.97;1.90;;;18.90;99.90;;;;;;5111655;27;20278;-66
2022/07/21 06:08:00;;;;;;;4.10;1.77;;;19.00;99.90;;;;;;5130184;27;20772;-66
2022/07/21 06:10:27;;;;;;;2.60;1.80;;;19.10;99.90;;;;;;5123071;27;20226;-65
2022/07/21 06:12:54;;;;;;;2.50;1.57;;;19.20;99.90;;;;;;5112301;27;20608;-64
2022/07/21 06:15:21;;;;;;;2.97;1.50;;;19.40;99.90;;;;;;5116416;27;20199;-65
2022/07/21 06:17:49;;;;;;;5.90;1.80;;;19.40;99.90;;;;;;5130856;27;20307;-65
2022/07/21 06:20:16;;;;;;;2.33;1.80;;;19.50;99.90;;;;;;5130284;27;20220;-65
2022/07/21 06:22:43;;;;;;;3.80;1.70;;;19.50;99.90;;;;;;5125557;27;20207;-65
2022/07/21 06:25:10;;;;;;;2.60;1.70;;;19.60;99.90;;;;;;5110082;28;20208;-66
2022/07/21 06:27:37;;;;;;;3.70;2.10;;;19.70;99.90;;;;;;5110368;28;20305;-65
2022/07/21 06:30:05;;;;;;;4.30;2.10;;;19.70;99.90;;;;;;5112221;28;20625;-66
2022/07/21 06:32:32;;;;;;;5.97;1.63;;;19.80;99.90;;;;;;5111965;27;20626;-65
2022/07/21 06:35:01;;;;;;;2.10;1.57;;;19.90;99.90;;;;;;5111952;28;20209;-65
2022/07/21 06:37:27;;;;;;;3.43;1.40;;;19.90;99.90;;;;;;5112149;28;20207;-67
2022/07/21 06:39:54;;;;;;;5.33;1.53;;;19.90;99.90;;;;;;5112554;28;20314;-65
2022/07/21 06:42:21;;;;;;;3.77;1.40;;;20.00;99.90;;;;;;5111882;28;20204;-66
2022/07/21 06:44:48;;;;;;;4.97;1.47;;;20.00;99.90;;;;;;5111876;28;20295;-65
2022/07/21 06:47:15;;;;;;;3.50;1.77;;;20.20;99.90;;;;;;5111959;28;20298;-66
2022/07/21 06:49:42;;;;;;;2.37;1.53;;;20.20;99.90;;;;;;5112004;28;20325;-66
2022/07/21 06:52:10;;;;;;;4.13;1.60;;;20.30;99.90;;;;;;5111709;28;20300;-66
2022/07/21 06:54:37;;;;;;;4.40;1.30;;;20.40;99.90;;;;;;5130092;28;20694;-66
2022/07/21 06:57:04;;;;;;;5.00;1.77;;;20.40;99.90;;;;;;5129955;27;20207;-66
2022/07/21 06:59:31;;;;;;;1.47;1.30;;;20.50;99.90;;;;;;5132585;28;20297;-65
2022/07/21 07:01:59;;;;;;;2.17;1.23;;;20.50;99.90;;;;;;5132195;28;20300;-67
2022/07/21 07:04:26;;;;;;;4.30;1.37;;;20.50;99.90;;;;;;5112992;28;20232;-66
2022/07/21 07:06:54;;;;;;;1.20;1.10;;;20.60;99.90;;;;;;5114084;28;20200;-68
2022/07/21 07:09:23;;;;;;;3.47;1.40;;;20.50;99.90;;;;;;5118013;28;20308;-66
2022/07/21 07:11:52;;;;;;;2.63;1.40;;;20.50;99.90;;;;;;5132903;27;20635;-65
2022/07/21 07:14:20;;;;;;;6.07;1.30;;;20.60;99.90;;;;;;5131954;28;20203;-64
2022/07/21 07:16:47;;;;;;;5.40;1.47;;;20.60;99.90;;;;;;5131119;28;20255;-65
2022/07/21 07:19:14;;;;;;;1.83;1.40;;;20.70;99.90;;;;;;5131958;27;20280;-64
2022/07/21 07:21:41;;;;;;;2.73;1.30;;;20.80;99.90;;;;;;5132110;28;20291;-65
2022/07/21 07:24:08;;;;;;;3.30;1.50;;;20.80;99.90;;;;;;5132253;28;20766;-65
2022/07/21 07:26:36;;;;;;;1.47;1.10;;;20.90;99.90;;;;;;5128224;27;20223;-65
2022/07/21 07:29:03;;;;;;;3.87;1.47;;;21.00;99.90;;;;;;5115028;27;20238;-65
2022/07/21 07:31:30;;;;;;;5.37;1.50;;;21.00;99.90;;;;;;5115763;28;20199;-66
2022/07/21 07:33:58;;;;;;;3.40;1.40;;;21.10;99.90;;;;;;5115811;28;20295;-66
2022/07/21 07:36:25;;;;;;;5.17;1.40;;;21.30;99.90;;;;;;5118588;27;20201;-66
2022/07/21 07:38:52;;;;;;;5.20;1.40;;;21.40;99.90;;;;;;5136259;27;20298;-65
2022/07/21 07:41:19;;;;;;;3.10;1.20;;;21.50;99.90;;;;;;5135848;27;20272;-65
2022/07/21 07:43:47;;;;;;;4.60;1.30;;;21.50;99.90;;;;;;5135407;27;20340;-65
2022/07/21 07:46:14;;;;;;;3.60;1.20;;;21.50;99.90;;;;;;5134528;27;20745;-66
2022/07/21 07:48:42;;;;;;;1.27;1.17;;;21.50;99.90;;;;;;5136013;27;20682;-65
2022/07/21 07:51:09;;;;;;;1.40;1.20;;;21.50;99.90;;;;;;5133478;27;20325;-66
2022/07/21 07:53:37;;;;;;;1.30;1.10;;;21.50;99.90;;;;;;5120406;27;20226;-66
2022/07/21 07:56:05;;;;;;;1.63;1.10;;;21.50;99.90;;;;;;5135474;27;20244;-65
2022/07/21 07:58:31;;;;;;;4.00;1.10;;;21.50;99.90;;;;;;5141597;27;20198;-66
2022/07/21 08:01:00;;;;;;;1.90;1.07;;;21.50;99.90;;;;;;5135474;27;20297;-65
2022/07/21 08:03:28;;;;;;;2.00;1.27;;;21.50;99.90;;;;;;5136024;27;20203;-66
2022/07/21 08:05:59;;;;;;;3.23;0.90;;;21.60;99.90;;;;;;5149368;27;20198;-65
2022/07/21 08:08:26;;;;;;;1.63;1.00;;;21.70;99.90;;;;;;5125341;27;20610;-67
2022/07/21 08:10:53;;;;;;;1.70;1.00;;;21.80;99.90;;;;;;5141684;27;20192;-66
2022/07/21 08:13:20;;;;;;;3.67;1.03;;;21.80;99.90;;;;;;5135825;27;20290;-65
2022/07/21 08:15:48;;;;;;;3.67;1.10;;;21.90;99.90;;;;;;5141411;27;20286;-67
2022/07/21 08:18:17;;;;;;;3.50;1.20;;;21.90;99.90;;;;;;5135996;27;20792;-66
2022/07/21 08:20:47;;;;;;;5.57;1.23;;;22.00;99.90;;;;;;5134991;27;20222;-65
2022/07/21 08:23:15;;;;;;;3.87;1.00;;;21.90;99.90;;;;;;5121107;27;20226;-68
2022/07/21 08:25:42;;;;;;;1.53;1.10;;;21.90;99.90;;;;;;5119130;27;20203;-65
2022/07/21 08:28:10;;;;;;;3.30;1.20;;;21.90;99.90;;;;;;5113982;28;20749;-66
2022/07/21 08:30:38;;;;;;;4.07;1.37;;;22.00;99.90;;;;;;5114016;28;20298;-66
2022/07/21 08:33:05;;;;;;;3.73;1.53;;;22.10;99.90;;;;;;5114187;28;20207;-65
2022/07/21 08:35:34;;;;;;;1.10;1.00;;;22.10;99.90;;;;;;5114829;28;20623;-65
2022/07/21 08:38:03;;;;;;;2.37;1.20;;;22.10;99.90;;;;;;5114420;28;20243;-66
2022/07/21 08:40:32;;;;;;;3.90;1.30;;;22.10;99.90;;;;;;5114684;28;20314;-65
2022/07/21 08:43:00;;;;;;;2.97;1.00;;;22.20;99.90;;;;;;5114079;28;20238;-65
2022/07/21 08:45:30;;;;;;;1.33;1.10;;;22.30;99.90;;;;;;5113117;28;20816;-65
2022/07/21 08:47:57;;;;;;;1.37;1.10;;;22.30;99.90;;;;;;5122004;27;20559;-65
2022/07/21 08:50:26;;;;;;;2.33;1.10;;;22.40;99.90;;;;;;5137424;27;20232;-65
2022/07/21 08:52:56;;;;;;;4.03;1.10;;;22.40;99.90;;;;;;5134608;27;20234;-64
2022/07/21 08:55:23;;;;;;;5.50;1.20;;;22.40;99.90;;;;;;5112879;27;20199;-65
2022/07/21 08:57:50;;;;;;;4.17;1.20;;;22.50;99.90;;;;;;5132473;27;20306;-64
2022/07/21 09:00:17;;;;;;;5.47;1.03;;;22.50;99.90;;;;;;5135402;27;20661;-64
2022/07/21 09:02:44;;;;;;;1.37;1.23;;;22.40;99.90;;;;;;5133030;27;20239;-64
2022/07/21 09:05:11;;;;;;;1.37;1.10;;;22.40;99.90;;;;;;5112856;28;20200;-65
2022/07/21 09:07:49;;;;;;;2.93;1.10;;;22.50;99.90;;;;;;5113638;28;20196;-64
2022/07/21 09:10:22;;;;;;;2.87;1.50;;;22.50;99.90;;;;;;5130842;27;20284;-64
2022/07/21 09:12:51;;;;;;;5.20;1.27;;;22.50;99.90;;;;;;5141028;27;20471;-65
2022/07/21 09:15:21;;;;;;;2.87;1.27;;;22.60;99.90;;;;;;5131009;27;20299;-66
2022/07/21 09:18:05;;;;;;;1.80;1.17;;;22.70;99.90;;;;;;5113404;28;20218;-65
2022/07/21 09:20:33;;;;;;;1.73;1.10;;;22.80;99.90;;;;;;5114094;27;20239;-64
2022/07/21 09:23:04;;;;;;;3.47;1.50;;;22.80;99.90;;;;;;5133770;27;20231;-64
2022/07/21 09:25:41;;;;;;;2.30;1.30;;;22.80;99.90;;;;;;5134068;27;20288;-65
2022/07/21 09:28:14;;;;;;;1.50;1.30;;;22.90;99.90;;;;;;5134232;27;20215;-65
2022/07/21 09:31:01;;;;;;;2.93;1.20;;;23.00;99.90;;;;;;5127129;27;20704;-64
2022/07/21 09:33:32;;;;;;;4.27;1.20;;;23.00;99.90;;;;;;5131915;27;20608;-65
2022/07/21 09:36:01;;;;;;;1.63;1.10;;;23.10;99.90;;;;;;5112785;28;20200;-66
2022/07/21 09:38:30;;;;;;;4.03;1.10;;;23.20;99.90;;;;;;5112731;28;20252;-67
2022/07/21 09:41:05;;;;;;;3.73;1.10;;;23.20;99.90;;;;;;5113128;28;20268;-66
2022/07/21 09:43:36;;;;;;;3.90;1.20;;;23.20;99.90;;;;;;5113244;28;20220;-67
2022/07/21 09:46:04;;;;;;;2.67;1.30;;;23.20;99.90;;;;;;5116386;27;20227;-67
2022/07/21 09:48:36;;;;;;;1.40;1.30;;;23.30;99.90;;;;;;5132918;27;20213;-67
2022/07/21 09:51:27;;;;;;;4.30;1.43;;;23.40;99.90;;;;;;5153554;27;20301;-67
2022/07/21 09:54:00;;;;;;;2.03;1.37;;;23.40;99.90;;;;;;5145283;27;20189;-67
2022/07/21 09:56:30;;;;;;;3.17;1.27;;;23.40;99.90;;;;;;5148091;27;20281;-67
2022/07/21 09:58:59;;;;;;;1.47;1.33;;;23.50;99.90;;;;;;5144620;27;20229;-67
2022/07/21 10:01:27;;;;;;;2.03;1.20;;;23.40;99.90;;;;;;5154044;27;20225;-66
2022/07/21 10:03:55;;;;;;;5.00;1.40;;;23.50;99.90;;;;;;5145296;27;20288;-67
2022/07/21 10:06:25;;;;;;;2.37;1.33;;;23.50;99.90;;;;;;5127171;27;20609;-67
2022/07/21 10:08:53;;;;;;;2.20;1.30;;;23.60;99.90;;;;;;5142725;27;20360;-66
2022/07/21 10:11:20;;;;;;;3.33;1.43;;;23.70;99.90;;;;;;5128111;27;20234;-66
2022/07/21 10:13:49;;;;;;;2.70;1.20;;;23.70;99.90;;;;;;5153661;27;20277;-66
2022/07/21 10:16:16;;;;;;;1.30;1.20;;;23.90;99.90;;;;;;5139917;27;20287;-66
2022/07/21 10:18:59;;;;;;;2.70;1.47;;;23.90;99.90;;;;;;5133401;27;20631;-68
2022/07/21 10:21:33;;;;;;;4.23;1.80;;;24.10;99.90;;;;;;5135849;27;20294;-67
2022/07/21 10:24:00;;;;;;;2.03;1.50;;;24.20;99.90;;;;;;5140329;27;20281;-67
2022/07/21 10:26:26;;;;;;;1.53;1.30;;;24.20;99.90;;;;;;5153749;27;20229;-68
2022/07/21 10:28:55;;;;;;;1.70;1.60;;;24.20;99.90;;;;;;5135344;27;20234;-68
2022/07/21 10:31:24;;;;;;;2.03;1.73;;;24.20;99.90;;;;;;5132841;27;20284;-64
2022/07/21 10:34:02;;;;;;;5.63;1.83;;;24.30;99.90;;;;;;5132342;27;20654;-66
2022/07/21 10:36:46;;;;;;;2.80;1.60;;;24.30;99.90;;;;;;5121280;27;20204;-65
2022/07/21 10:39:25;;;;;;;5.33;1.70;;;24.20;99.90;;;;;;5126202;28;20288;-66
2022/07/21 10:41:55;;;;;;;4.63;1.50;;;24.30;99.90;;;;;;5140315;27;20336;-67
2022/07/21 10:44:49;;;;;;;3.37;1.40;;;24.40;99.90;;;;;;5153434;27;20275;-68
2022/07/21 10:47:19;;;;;;;2.00;1.30;;;24.30;99.90;;;;;;5153789;27;20672;-68
2022/07/21 10:49:50;;;;;;;3.33;1.50;;;24.40;99.90;;;;;;5153730;27;20320;-69
2022/07/21 10:52:50;;;;;;;1.75;1.40;;;24.50;99.90;;;;;;5153821;27;20291;-68
2022/07/21 10:55:26;;;;;;;2.50;1.70;;;24.50;99.90;;;;;;5150821;27;20704;-68
2022/07/21 10:58:12;;;;;;;4.80;1.50;;;24.60;99.90;;;;;;5153762;27;20195;-68
2022/07/21 11:00:44;;;;;;;1.90;1.53;;;24.60;99.90;;;;;;5154524;27;20190;-68
2022/07/21 11:03:17;;;;;;;3.83;1.80;;;24.60;99.90;;;;;;5157792;27;20254;-69
2022/07/21 11:06:19;;;;;;;2.25;1.60;;;24.60;99.90;;;;;;5157734;27;20289;-70
2022/07/21 11:08:47;;;;;;;3.27;1.70;;;24.70;99.90;;;;;;5157835;27;20188;-68
2022/07/21 11:11:17;;;;;;;2.03;1.70;;;24.70;99.90;;;;;;5157996;27;20296;-70
2022/07/21 11:14:08;;;;;;;3.25;2.00;;;24.70;99.90;;;;;;5157617;27;20293;-68
2022/07/21 11:17:11;;;;;;;4.90;2.00;;;24.80;99.90;;;;;;5157408;27;20182;-69
2022/07/21 11:19:45;;;;;;;2.47;2.10;;;24.90;99.90;;;;;;5157430;27;20187;-68
2022/07/21 11:22:14;;;;;;;2.97;1.93;;;25.00;99.90;;;;;;5157681;27;20339;-69
2022/07/21 11:24:43;;;;;;;2.30;1.60;;;25.00;99.90;;;;;;5157329;27;20296;-69
2022/07/21 11:27:12;;;;;;;4.25;1.98;;;25.00;99.90;;;;;;5157274;27;20227;-68
2022/07/21 11:29:42;;;;;;;3.92;2.35;;;25.00;99.90;;;;;;5157156;27;20290;-68
2022/07/21 11:32:11;;;;;;;2.03;1.67;;;25.10;99.90;;;;;;5157255;27;20753;-68
2022/07/21 11:34:44;;;;;;;3.35;1.80;;;25.10;99.90;;;;;;5157049;27;20635;-68
2022/07/21 11:37:13;;;;;;;2.73;2.00;;;25.10;99.90;;;;;;5157287;27;20203;-68
2022/07/21 11:39:41;;;;;;;1.92;1.77;;;25.20;99.90;;;;;;5156825;27;20202;-68
2022/07/21 11:42:10;;;;;;;4.13;1.80;;;25.30;99.90;;;;;;5156407;27;20226;-68
2022/07/21 11:44:37;;;;;;;2.33;1.90;;;25.20;99.90;;;;;;5156883;27;20205;-67
2022/07/21 11:47:07;;;;;;;3.55;1.90;;;25.30;99.90;;;;;;5156587;27;20204;-67
2022/07/21 11:49:35;;;;;;;3.55;1.90;;;25.30;99.90;;;;;;5156299;27;20229;-68
2022/07/21 11:52:05;;;;;;;5.30;2.10;;;25.30;99.90;;;;;;5156883;27;20298;-67
2022/07/21 11:54:34;;;;;;;3.95;2.28;;;25.40;99.90;;;;;;5156530;27;20725;-68
2022/07/21 11:57:04;;;;;;;4.43;2.45;;;25.40;99.90;;;;;;5156593;27;20728;-70
2022/07/21 11:59:32;;;;;;;3.83;2.33;;;25.40;99.90;;;;;;5156580;27;20256;-69
2022/07/21 12:02:05;;;;;;;2.97;2.42;;;25.20;99.90;;;;;;5156668;27;20624;-69
2022/07/21 12:04:41;;;;;;;2.53;2.20;;;25.20;99.90;;;;;;5156722;27;20280;-69
2022/07/21 12:07:22;;;;;;;5.45;2.35;;;25.30;99.90;;;;;;5156837;27;20189;-70
2022/07/21 12:09:52;;;;;;;2.50;1.95;;;25.30;99.90;;;;;;5156741;27;20620;-70
2022/07/21 12:12:33;;;;;;;3.35;2.08;;;25.40;99.90;;;;;;5156287;27;20635;-68
2022/07/21 12:15:12;;;;;;;5.05;2.60;;;25.40;99.90;;;;;;5156383;27;20565;-67
2022/07/21 12:17:41;;;;;;;3.83;2.72;;;25.20;99.90;;;;;;5155668;27;20276;-67
2022/07/21 12:20:10;;;;;;;4.00;2.90;;;25.10;99.90;;;;;;5156087;27;20208;-70
2022/07/21 12:22:42;;;;;;;4.00;3.20;;;25.10;99.90;;;;;;5156046;27;20309;-68
2022/07/21 12:25:10;;;;;;;5.30;2.88;;;25.10;99.90;;;;;;5156335;27;20184;-67
2022/07/21 12:27:38;;;;;;;4.95;3.25;;;25.10;99.90;;;;;;5156289;27;20201;-68
2022/07/21 12:30:07;;;;;;;3.45;3.00;;;25.10;99.90;;;;;;5156160;27;20294;-71
2022/07/21 12:32:46;;;;;;;3.75;2.63;;;25.10;99.90;;;;;;5117458;27;20309;-67
2022/07/21 12:35:24;;;;;;;4.55;2.60;;;25.20;99.90;;;;;;5115392;28;20283;-71
2022/07/21 12:37:59;;;;;;;3.90;2.83;;;25.30;99.90;;;;;;5152741;27;20225;-69
2022/07/21 12:40:28;;;;;;;3.38;2.40;;;25.40;99.90;;;;;;5115431;28;20643;-70
2022/07/21 12:43:07;;;;;;;2.47;2.25;;;25.40;99.90;;;;;;5115853;28;20322;-70
2022/07/21 12:45:46;;;;;;;5.22;2.65;;;25.50;99.90;;;;;;5118169;27;20263;-70
2022/07/21 12:48:15;;;;;;;3.10;2.80;;;25.70;99.90;;;;;;5142062;27;20644;-69
2022/07/21 12:50:57;;;;;;;4.15;2.83;;;25.60;99.90;;;;;;5140490;27;20674;-70
2022/07/21 12:53:24;;;;;;;6.50;3.10;;;25.60;99.70;;;;;;5135821;27;20377;-67
2022/07/21 12:55:50;;;;;;;5.40;3.40;;;25.60;99.90;;;;;;5139517;27;20296;-71
2022/07/21 12:58:18;;;;;;;4.05;3.00;;;25.60;99.90;;;;;;5115080;28;20240;-69
2022/07/21 13:00:45;;;;;;;6.70;3.47;;;25.60;99.90;;;;;;5146455;27;20290;-67
2022/07/21 13:03:12;;;;;;;6.38;3.28;;;25.70;99.90;;;;;;5155623;27;20660;-66
2022/07/21 13:05:39;;;;;;;4.22;3.10;;;25.60;99.90;;;;;;5155303;27;20219;-68
2022/07/21 13:08:07;;;;;;;4.80;2.90;;;25.50;99.90;;;;;;5150508;27;20763;-69
2022/07/21 13:10:34;;;;;;;6.55;3.20;;;25.50;99.90;;;;;;5114395;28;21127;-71
2022/07/21 13:13:01;;;;;;;5.32;3.63;;;25.60;99.90;;;;;;5129458;27;20284;-67
2022/07/21 13:15:28;;;;;;;4.30;3.25;;;25.70;99.90;;;;;;5113903;28;20214;-69
2022/07/21 13:17:55;;;;;;;17.35;5.30;;;25.80;99.90;;;;;;5133647;27;20211;-67
2022/07/21 13:20:22;;;;;;;3.95;2.80;;;25.90;99.90;;;;;;5132758;27;20210;-71
2022/07/21 13:22:48;;;;;;;4.20;2.80;;;25.90;99.90;;;;;;5124531;27;20565;-74
2022/07/21 13:25:17;;;;;;;4.88;2.97;;;25.90;99.90;;;;;;5134910;27;20293;-71
2022/07/21 13:27:44;;;;;;;6.85;3.45;;;25.80;99.70;;;;;;5130862;27;20300;-71
2022/07/21 13:30:11;;;;;;;6.63;3.10;;;25.70;99.90;;;;;;5124447;27;20641;-70
2022/07/21 13:32:39;;;;;;;3.55;2.80;;;25.70;99.90;;;;;;5136896;27;20222;-67
2022/07/21 13:35:06;;;;;;;4.72;3.00;;;25.90;99.90;;;;;;5151643;27;20294;-69
2022/07/21 13:37:33;;;;;;;3.75;2.92;;;26.00;99.80;;;;;;5146962;27;20302;-66
2022/07/21 13:40:00;;;;;;;4.43;2.90;;;26.00;99.70;;;;;;5133734;27;20295;-67
2022/07/21 13:42:28;;;;;;;5.53;3.25;;;26.00;99.60;;;;;;5135407;27;20247;-66
2022/07/21 13:44:55;;;;;;;6.20;3.15;;;25.90;99.70;;;;;;5145853;27;20235;-69
2022/07/21 13:47:22;;;;;;;3.17;2.85;;;25.90;99.70;;;;;;5140793;27;20792;-69
2022/07/21 13:49:49;;;;;;;5.35;3.20;;;25.90;99.90;;;;;;5120278;27;20249;-68
2022/07/21 13:52:16;;;;;;;5.20;3.20;;;25.90;99.90;;;;;;5133630;27;20609;-68
2022/07/21 13:54:43;;;;;;;3.80;2.92;;;25.90;99.70;;;;;;5126451;27;20291;-67
2022/07/21 13:57:10;;;;;;;3.15;2.85;;;25.90;99.40;;;;;;5116047;27;20300;-68
2022/07/21 13:59:38;;;;;;;3.95;2.95;;;25.90;99.60;;;;;;5133667;27;20258;-68
2022/07/21 14:02:05;;;;;;;6.25;2.97;;;25.90;99.80;;;;;;5133643;27;20298;-67
2022/07/21 14:04:32;;;;;;;3.17;2.75;;;25.90;99.80;;;;;;5121902;27;20813;-66
2022/07/21 14:06:58;;;;;;;4.72;2.97;;;25.90;99.90;;;;;;5113551;28;20288;-66
2022/07/21 14:09:25;;;;;;;5.35;3.30;;;25.80;99.90;;;;;;5117047;27;20712;-68
2022/07/21 14:11:53;;;;;;;7.45;3.22;;;25.90;99.90;;;;;;5128092;27;20271;-67
2022/07/21 14:14:22;;;;;;;6.72;3.40;;;25.90;99.90;;;;;;5133010;27;20214;-67
2022/07/21 14:16:51;;;;;;;7.63;3.83;;;25.90;99.90;;;;;;5133215;27;20719;-68
2022/07/21 14:19:18;;;;;;;8.38;4.00;;;26.00;99.60;;;;;;5133260;27;20731;-66
2022/07/21 14:21:44;;;;;;;8.40;3.75;;;26.00;99.30;;;;;;5133297;27;20212;-68
2022/07/21 14:26:56;;;;;;;4.65;3.42;;;26.00;99.40;;;;;;5133223;27;20606;-67
2022/07/21 14:29:23;;;;;;;3.60;3.17;;;26.00;99.70;;;;;;5133496;27;20299;-67
2022/07/21 14:31:51;;;;;;;5.97;3.25;;;26.10;99.60;;;;;;5133273;27;20260;-67
2022/07/21 14:34:18;;;;;;;4.30;3.10;;;26.20;99.70;;;;;;5133193;27;20201;-68
2022/07/21 14:36:47;;;;;;;5.20;3.15;;;26.20;99.40;;;;;;5133260;27;20255;-68
2022/07/21 14:39:13;;;;;;;4.80;2.92;;;26.20;99.50;;;;;;5133608;27;20554;-67
2022/07/21 14:41:40;;;;;;;6.45;3.20;;;26.20;99.30;;;;;;5133542;28;20244;-68
2022/07/21 14:44:07;;;;;;;5.70;3.13;;;26.10;99.20;;;;;;5132759;28;20235;-66
2022/07/21 14:46:34;;;;;;;5.15;3.15;;;26.00;99.70;;;;;;5132332;28;20295;-66
2022/07/21 14:49:02;;;;;;;3.70;3.20;;;26.00;99.60;;;;;;5114882;27;20572;-69
2022/07/21 14:51:29;;;;;;;7.57;3.60;;;26.00;99.50;;;;;;5130575;28;20961;-67
2022/07/21 14:53:56;;;;;;;4.88;2.97;;;26.00;99.40;;;;;;5120611;28;20191;-67
2022/07/21 14:56:23;;;;;;;4.88;3.05;;;26.00;99.50;;;;;;5130523;27;20198;-67
2022/07/21 14:58:50;;;;;;;5.50;3.30;;;26.10;99.90;;;;;;5128087;27;20262;-68
2022/07/21 15:01:17;;;;;;;4.13;3.30;;;26.20;99.30;;;;;;5132229;28;20206;-67
2022/07/21 15:03:44;;;;;;;5.60;3.75;;;26.20;99.20;;;;;;5132570;27;20273;-67
2022/07/21 15:06:12;;;;;;;5.15;3.20;;;26.20;99.30;;;;;;5132610;28;20293;-67
2022/07/21 15:08:39;;;;;;;4.80;3.10;;;26.20;99.90;;;;;;5131922;28;20646;-67
2022/07/21 15:11:06;;;;;;;5.85;3.35;;;26.30;99.50;;;;;;5115057;28;20263;-68
2022/07/21 15:13:33;;;;;;;7.18;3.42;;;26.30;99.60;;;;;;5130511;28;20195;-67
2022/07/21 15:16:00;;;;;;;8.82;3.40;;;26.20;99.70;;;;;;5127162;27;20265;-67
2022/07/21 15:18:27;;;;;;;3.97;3.03;;;26.10;99.70;;;;;;5112572;28;20206;-69
2022/07/21 15:20:54;;;;;;;3.72;3.08;;;26.10;99.70;;;;;;5120733;28;20284;-68
2022/07/21 15:23:22;;;;;;;4.25;3.40;;;26.00;99.20;;;;;;5131642;28;20312;-67
2022/07/21 15:25:49;;;;;;;6.22;3.40;;;26.00;99.40;;;;;;5117902;27;20211;-68
2022/07/21 15:28:16;;;;;;;4.65;3.45;;;26.00;99.50;;;;;;5129460;28;20674;-67
2022/07/21 15:30:43;;;;;;;4.82;3.15;;;26.00;99.90;;;;;;5133366;27;20290;-68
2022/07/21 15:33:10;;;;;;;4.38;3.55;;;26.00;99.80;;;;;;5152809;27;20243;-68
2022/07/21 15:35:37;;;;;;;5.97;3.22;;;25.90;99.70;;;;;;5145176;27;20778;-65
2022/07/21 15:38:04;;;;;;;3.95;3.00;;;25.80;99.70;;;;;;5132350;27;20206;-69
2022/07/21 15:40:33;;;;;;;5.07;3.35;;;25.80;99.90;;;;;;5132361;28;20257;-68
2022/07/21 15:43:00;;;;;;;6.10;3.58;;;25.90;99.90;;;;;;5131855;28;20271;-68
2022/07/21 15:45:26;;;;;;;5.40;3.33;;;25.90;99.80;;;;;;5127787;28;20656;-67
2022/07/21 15:47:54;;;;;;;3.42;3.10;;;25.90;99.80;;;;;;5114089;28;20291;-67
2022/07/21 15:50:21;;;;;;;4.38;3.50;;;25.90;99.90;;;;;;5115448;28;20867;-67